EWG8FZ EDLW-EDDM
Flight info
| Callsign | EWG8FZ |
|---|---|
| Flight time | N/A |
| Altitude | 31000 |
| Route | GMH8Q GMH Z841 BIGSU/N0416F310 L603 BOMBI DCT DKB/N0367F230 T104 ROKIL ROKIL1A |
| Aircraft | A319/M-SDE3FGHIRWY/LB1 |
Departure
| Time | N/A |
|---|---|
| Airport | Dortmund Airport (EDLW) |
Arrival
| Time | 2026-05-01 07:52 |
|---|---|
| Airport | Munich Airport (EDDM) |
| Time | Latitude | Longitude | Altitude | Speed | Heading |
|---|---|---|---|---|---|
| 2026-05-01 07:23 | 49.92317 | 9.01558 | 31384 ft | 403 kts | 131° |
| 2026-05-01 07:24 | 49.86472 | 9.10897 | 31382 ft | 403 kts | 131° |
| 2026-05-01 07:24 | 49.82546 | 9.17173 | 31380 ft | 403 kts | 131° |
| 2026-05-01 07:25 | 49.78672 | 9.23359 | 31380 ft | 403 kts | 131° |
| 2026-05-01 07:25 | 49.74759 | 9.29579 | 31379 ft | 402 kts | 131° |
| 2026-05-01 07:26 | 49.70853 | 9.35775 | 31368 ft | 402 kts | 131° |
| 2026-05-01 07:26 | 49.66938 | 9.41968 | 31373 ft | 402 kts | 131° |
| 2026-05-01 07:27 | 49.63023 | 9.48141 | 31369 ft | 402 kts | 132° |
| 2026-05-01 07:27 | 49.59105 | 9.54307 | 31370 ft | 402 kts | 131° |
| 2026-05-01 07:28 | 49.55175 | 9.60477 | 31369 ft | 403 kts | 131° |
| 2026-05-01 07:28 | 49.51271 | 9.66595 | 31370 ft | 403 kts | 131° |
| 2026-05-01 07:29 | 49.47330 | 9.72750 | 31184 ft | 404 kts | 131° |
| 2026-05-01 07:29 | 49.45357 | 9.75831 | 30940 ft | 403 kts | 131° |
| 2026-05-01 07:29 | 49.43394 | 9.78898 | 30692 ft | 401 kts | 131° |
| 2026-05-01 07:29 | 49.41435 | 9.81951 | 30448 ft | 400 kts | 131° |
| 2026-05-01 07:30 | 49.39485 | 9.84985 | 30171 ft | 398 kts | 131° |
| 2026-05-01 07:30 | 49.37539 | 9.88001 | 29878 ft | 396 kts | 131° |
| 2026-05-01 07:30 | 49.35621 | 9.90968 | 29608 ft | 395 kts | 131° |
| 2026-05-01 07:30 | 49.33691 | 9.93948 | 29324 ft | 393 kts | 131° |
| 2026-05-01 07:31 | 49.31769 | 9.96918 | 29051 ft | 391 kts | 131° |
| 2026-05-01 07:31 | 49.26062 | 10.05725 | 28239 ft | 385 kts | 131° |
| 2026-05-01 07:32 | 49.22303 | 10.11510 | 27713 ft | 381 kts | 131° |
| 2026-05-01 07:32 | 49.20465 | 10.14344 | 27454 ft | 379 kts | 131° |
| 2026-05-01 07:33 | 49.16757 | 10.20037 | 26959 ft | 375 kts | 131° |
| 2026-05-01 07:33 | 49.14922 | 10.22839 | 26594 ft | 370 kts | 131° |
| 2026-05-01 07:33 | 49.11329 | 10.28459 | 25741 ft | 366 kts | 130° |
| 2026-05-01 07:34 | 49.09588 | 10.31280 | 25307 ft | 364 kts | 130° |
| 2026-05-01 07:34 | 49.06136 | 10.36900 | 24387 ft | 361 kts | 130° |
| 2026-05-01 07:34 | 49.04419 | 10.39680 | 23927 ft | 359 kts | 130° |
| 2026-05-01 07:35 | 49.02718 | 10.42414 | 23427 ft | 357 kts | 130° |
| 2026-05-01 07:35 | 49.01012 | 10.45146 | 22979 ft | 354 kts | 130° |
| 2026-05-01 07:35 | 48.99319 | 10.47856 | 22536 ft | 351 kts | 130° |
| 2026-05-01 07:35 | 48.97636 | 10.50535 | 22097 ft | 349 kts | 130° |
| 2026-05-01 07:36 | 48.95963 | 10.53197 | 21667 ft | 346 kts | 130° |
| 2026-05-01 07:36 | 48.94303 | 10.55840 | 21237 ft | 344 kts | 130° |
| 2026-05-01 07:36 | 48.92655 | 10.58461 | 20815 ft | 342 kts | 130° |
| 2026-05-01 07:36 | 48.91005 | 10.61081 | 20103 ft | 348 kts | 130° |
| 2026-05-01 07:37 | 48.87635 | 10.66430 | 18786 ft | 347 kts | 130° |
| 2026-05-01 07:37 | 48.85975 | 10.69056 | 18045 ft | 343 kts | 130° |
| 2026-05-01 07:37 | 48.84331 | 10.71651 | 17289 ft | 339 kts | 131° |
| 2026-05-01 07:38 | 48.82713 | 10.74197 | 16758 ft | 330 kts | 131° |
| 2026-05-01 07:38 | 48.81129 | 10.76689 | 16378 ft | 326 kts | 131° |
| 2026-05-01 07:38 | 48.78003 | 10.81609 | 15629 ft | 322 kts | 131° |
| 2026-05-01 07:39 | 48.76448 | 10.84055 | 15250 ft | 320 kts | 131° |
| 2026-05-01 07:39 | 48.74906 | 10.86473 | 14874 ft | 319 kts | 131° |
| 2026-05-01 07:39 | 48.71833 | 10.91290 | 14132 ft | 316 kts | 131° |
| 2026-05-01 07:40 | 48.70822 | 10.92874 | 13861 ft | 315 kts | 131° |
| 2026-05-01 07:40 | 48.69301 | 10.95256 | 13485 ft | 312 kts | 131° |
| 2026-05-01 07:40 | 48.67795 | 10.97613 | 13115 ft | 310 kts | 131° |
| 2026-05-01 07:40 | 48.66297 | 10.99954 | 12740 ft | 308 kts | 131° |
| 2026-05-01 07:41 | 48.64806 | 11.02280 | 12367 ft | 306 kts | 131° |
| 2026-05-01 07:41 | 48.63329 | 11.04587 | 11981 ft | 304 kts | 131° |
| 2026-05-01 07:41 | 48.60443 | 11.09073 | 11564 ft | 291 kts | 131° |
| 2026-05-01 07:42 | 48.59039 | 11.11255 | 11284 ft | 289 kts | 131° |
| 2026-05-01 07:42 | 48.57634 | 11.13439 | 10894 ft | 289 kts | 131° |
| 2026-05-01 07:42 | 48.56231 | 11.15624 | 10499 ft | 289 kts | 131° |
| 2026-05-01 07:42 | 48.54843 | 11.17777 | 10099 ft | 282 kts | 131° |
| 2026-05-01 07:43 | 48.53490 | 11.19871 | 9670 ft | 274 kts | 131° |
| 2026-05-01 07:43 | 48.52170 | 11.21913 | 9252 ft | 270 kts | 131° |
| 2026-05-01 07:43 | 48.49587 | 11.25903 | 8433 ft | 265 kts | 132° |
| 2026-05-01 07:44 | 48.47026 | 11.29851 | 7624 ft | 263 kts | 133° |
| 2026-05-01 07:44 | 48.44601 | 11.33591 | 6879 ft | 263 kts | 132° |
| 2026-05-01 07:45 | 48.43340 | 11.35533 | 6466 ft | 259 kts | 133° |
| 2026-05-01 07:45 | 48.42094 | 11.37451 | 6051 ft | 252 kts | 133° |
| 2026-05-01 07:45 | 48.40882 | 11.39311 | 5651 ft | 244 kts | 133° |
| 2026-05-01 07:45 | 48.39713 | 11.41103 | 5240 ft | 236 kts | 133° |
| 2026-05-01 07:46 | 48.38567 | 11.42856 | 4827 ft | 232 kts | 132° |
| 2026-05-01 07:46 | 48.37449 | 11.44569 | 4472 ft | 225 kts | 133° |
| 2026-05-01 07:46 | 48.35322 | 11.47847 | 4014 ft | 213 kts | 129° |
| 2026-05-01 07:47 | 48.34594 | 11.49673 | 4012 ft | 198 kts | 109° |
| 2026-05-01 07:47 | 48.34341 | 11.51656 | 3999 ft | 188 kts | 93° |
| 2026-05-01 07:47 | 48.34458 | 11.53572 | 4032 ft | 179 kts | 85° |
| 2026-05-01 07:47 | 48.34602 | 11.55396 | 4000 ft | 172 kts | 85° |
| 2026-05-01 07:48 | 48.34876 | 11.58889 | 3859 ft | 169 kts | 86° |
| 2026-05-01 07:48 | 48.35013 | 11.60621 | 3638 ft | 165 kts | 85° |
| 2026-05-01 07:48 | 48.35149 | 11.62342 | 3446 ft | 164 kts | 85° |
| 2026-05-01 07:49 | 48.35282 | 11.64032 | 3210 ft | 160 kts | 85° |
| 2026-05-01 07:49 | 48.35524 | 11.67198 | 2762 ft | 148 kts | 85° |
| 2026-05-01 07:49 | 48.35647 | 11.68671 | 2526 ft | 140 kts | 84° |
| 2026-05-01 07:50 | 48.35753 | 11.70096 | 2322 ft | 135 kts | 84° |
| 2026-05-01 07:50 | 48.35975 | 11.72844 | 1985 ft | 131 kts | 84° |
| 2026-05-01 07:50 | 48.36083 | 11.74178 | 1793 ft | 129 kts | 85° |
| 2026-05-01 07:51 | 48.36184 | 11.75520 | 1646 ft | 129 kts | 84° |
| 2026-05-01 07:51 | 48.36292 | 11.76862 | 1501 ft | 128 kts | 84° |
| 2026-05-01 07:51 | 48.36377 | 11.78062 | 1460 ft | 96 kts | 85° |
| 2026-05-01 07:52 | 48.36449 | 11.79080 | 1461 ft | 21 kts | 85° |
| 2026-05-01 07:52 | 48.36428 | 11.79333 | 1469 ft | 26 kts | 109° |
| 2026-05-01 07:52 | 48.36354 | 11.79586 | 1465 ft | 25 kts | 112° |
| 2026-05-01 07:53 | 48.36285 | 11.79787 | 1465 ft | 1 kts | 156° |
| 2026-05-01 07:53 | 48.36276 | 11.79791 | 1467 ft | 10 kts | 163° |
| 2026-05-01 07:53 | 48.36231 | 11.79701 | 1468 ft | 14 kts | 265° |
| 2026-05-01 07:53 | 48.36220 | 11.79557 | 1462 ft | 15 kts | 263° |
| 2026-05-01 07:54 | 48.36035 | 11.79493 | 1466 ft | 15 kts | 174° |
| 2026-05-01 07:55 | 48.35957 | 11.79506 | 1461 ft | 6 kts | 173° |
| 2026-05-01 07:55 | 48.35818 | 11.79529 | 1467 ft | 12 kts | 173° |
| 2026-05-01 07:56 | 48.35737 | 11.79263 | 1467 ft | 11 kts | 264° |
| 2026-05-01 07:56 | 48.35736 | 11.79245 | 1467 ft | 0 kts | 263° |